sensor_id;sensor_type;location;lat;lon;timestamp;P1;durP1;ratioP1;P2;durP2;ratioP2
11414;SDS011;5763;42.714;23.244;2022-09-30T00:01:41;13.50;;;10.43;;
11414;SDS011;5763;42.714;23.244;2022-09-30T00:04:11;13.30;;;10.70;;
11414;SDS011;5763;42.714;23.244;2022-09-30T00:06:40;15.50;;;10.77;;
11414;SDS011;5763;42.714;23.244;2022-09-30T00:09:07;16.48;;;12.05;;
11414;SDS011;5763;42.714;23.244;2022-09-30T00:11:37;19.10;;;13.60;;
11414;SDS011;5763;42.714;23.244;2022-09-30T00:14:05;18.15;;;13.15;;
11414;SDS011;5763;42.714;23.244;2022-09-30T00:16:33;15.82;;;11.98;;
11414;SDS011;5763;42.714;23.244;2022-09-30T00:19:02;15.30;;;11.55;;
11414;SDS011;5763;42.714;23.244;2022-09-30T00:21:30;17.00;;;11.88;;
11414;SDS011;5763;42.714;23.244;2022-09-30T00:23:58;13.45;;;10.60;;
11414;SDS011;5763;42.714;23.244;2022-09-30T00:26:25;17.15;;;11.05;;
11414;SDS011;5763;42.714;23.244;2022-09-30T00:28:54;14.45;;;10.85;;
11414;SDS011;5763;42.714;23.244;2022-09-30T00:31:22;13.70;;;10.07;;
11414;SDS011;5763;42.714;23.244;2022-09-30T00:33:51;12.07;;;10.35;;
11414;SDS011;5763;42.714;23.244;2022-09-30T00:36:32;13.15;;;10.55;;
11414;SDS011;5763;42.714;23.244;2022-09-30T00:39:00;14.65;;;11.05;;
11414;SDS011;5763;42.714;23.244;2022-09-30T00:41:27;13.80;;;10.32;;
11414;SDS011;5763;42.714;23.244;2022-09-30T00:43:56;15.20;;;11.00;;
11414;SDS011;5763;42.714;23.244;2022-09-30T00:46:26;12.48;;;9.57;;
11414;SDS011;5763;42.714;23.244;2022-09-30T00:48:59;15.30;;;11.23;;
11414;SDS011;5763;42.714;23.244;2022-09-30T00:51:34;13.25;;;9.77;;
11414;SDS011;5763;42.714;23.244;2022-09-30T00:54:05;11.07;;;9.88;;
11414;SDS011;5763;42.714;23.244;2022-09-30T00:56:36;10.40;;;8.82;;
11414;SDS011;5763;42.714;23.244;2022-09-30T00:59:09;11.30;;;8.43;;
11414;SDS011;5763;42.714;23.244;2022-09-30T01:01:40;10.68;;;8.85;;
11414;SDS011;5763;42.714;23.244;2022-09-30T01:04:09;12.45;;;9.77;;
11414;SDS011;5763;42.714;23.244;2022-09-30T01:06:38;11.45;;;9.20;;
11414;SDS011;5763;42.714;23.244;2022-09-30T01:09:05;14.07;;;10.32;;
11414;SDS011;5763;42.714;23.244;2022-09-30T01:11:33;12.98;;;10.43;;
11414;SDS011;5763;42.714;23.244;2022-09-30T01:14:00;12.32;;;10.30;;
11414;SDS011;5763;42.714;23.244;2022-09-30T01:16:41;16.75;;;10.82;;
11414;SDS011;5763;42.714;23.244;2022-09-30T01:22:27;14.88;;;11.45;;
11414;SDS011;5763;42.714;23.244;2022-09-30T01:25:08;14.02;;;10.98;;
11414;SDS011;5763;42.714;23.244;2022-09-30T01:28:03;15.90;;;11.52;;
11414;SDS011;5763;42.714;23.244;2022-09-30T01:31:00;15.18;;;11.35;;
11414;SDS011;5763;42.714;23.244;2022-09-30T01:33:39;13.13;;;10.73;;
11414;SDS011;5763;42.714;23.244;2022-09-30T01:36:16;10.65;;;9.15;;
11414;SDS011;5763;42.714;23.244;2022-09-30T01:39:08;12.88;;;10.85;;
11414;SDS011;5763;42.714;23.244;2022-09-30T01:41:47;14.25;;;10.88;;
11414;SDS011;5763;42.714;23.244;2022-09-30T01:44:22;11.90;;;10.70;;
11414;SDS011;5763;42.714;23.244;2022-09-30T01:47:01;13.65;;;11.75;;
11414;SDS011;5763;42.714;23.244;2022-09-30T01:49:37;15.60;;;11.20;;
11414;SDS011;5763;42.714;23.244;2022-09-30T01:52:08;11.82;;;10.35;;
11414;SDS011;5763;42.714;23.244;2022-09-30T01:54:41;14.07;;;11.20;;
11414;SDS011;5763;42.714;23.244;2022-09-30T01:57:15;15.25;;;11.07;;
11414;SDS011;5763;42.714;23.244;2022-09-30T01:59:45;12.63;;;10.25;;
11414;SDS011;5763;42.714;23.244;2022-09-30T02:02:20;12.45;;;10.23;;
11414;SDS011;5763;42.714;23.244;2022-09-30T02:04:51;11.43;;;10.23;;
11414;SDS011;5763;42.714;23.244;2022-09-30T02:07:22;11.38;;;9.60;;
11414;SDS011;5763;42.714;23.244;2022-09-30T02:09:56;23.02;;;10.65;;
11414;SDS011;5763;42.714;23.244;2022-09-30T02:12:27;20.63;;;10.45;;
11414;SDS011;5763;42.714;23.244;2022-09-30T02:15:00;18.05;;;9.48;;
11414;SDS011;5763;42.714;23.244;2022-09-30T02:17:33;10.80;;;9.40;;
11414;SDS011;5763;42.714;23.244;2022-09-30T02:20:07;14.32;;;9.60;;
11414;SDS011;5763;42.714;23.244;2022-09-30T02:22:39;12.50;;;9.32;;
11414;SDS011;5763;42.714;23.244;2022-09-30T02:25:10;10.88;;;9.60;;
11414;SDS011;5763;42.714;23.244;2022-09-30T02:27:45;10.77;;;8.95;;
11414;SDS011;5763;42.714;23.244;2022-09-30T02:30:16;10.82;;;8.95;;
11414;SDS011;5763;42.714;23.244;2022-09-30T02:32:47;10.18;;;9.07;;
11414;SDS011;5763;42.714;23.244;2022-09-30T02:35:18;9.73;;;8.38;;
11414;SDS011;5763;42.714;23.244;2022-09-30T02:37:49;11.00;;;8.85;;
11414;SDS011;5763;42.714;23.244;2022-09-30T02:40:23;9.48;;;8.48;;
11414;SDS011;5763;42.714;23.244;2022-09-30T02:42:55;11.05;;;8.98;;
11414;SDS011;5763;42.714;23.244;2022-09-30T02:45:23;9.88;;;8.55;;
11414;SDS011;5763;42.714;23.244;2022-09-30T02:47:57;8.88;;;7.97;;
11414;SDS011;5763;42.714;23.244;2022-09-30T02:50:33;9.73;;;8.73;;
11414;SDS011;5763;42.714;23.244;2022-09-30T02:53:09;9.98;;;8.95;;
11414;SDS011;5763;42.714;23.244;2022-09-30T02:55:48;10.82;;;8.68;;
11414;SDS011;5763;42.714;23.244;2022-09-30T02:58:30;9.80;;;8.57;;
11414;SDS011;5763;42.714;23.244;2022-09-30T03:01:03;10.18;;;8.82;;
11414;SDS011;5763;42.714;23.244;2022-09-30T03:03:34;10.55;;;9.00;;
11414;SDS011;5763;42.714;23.244;2022-09-30T03:06:06;11.57;;;9.65;;
11414;SDS011;5763;42.714;23.244;2022-09-30T03:08:36;10.07;;;9.07;;
11414;SDS011;5763;42.714;23.244;2022-09-30T03:11:03;10.40;;;9.40;;
11414;SDS011;5763;42.714;23.244;2022-09-30T03:13:42;13.02;;;10.52;;
11414;SDS011;5763;42.714;23.244;2022-09-30T03:16:22;11.73;;;10.25;;
11414;SDS011;5763;42.714;23.244;2022-09-30T03:19:13;11.07;;;9.88;;
11414;SDS011;5763;42.714;23.244;2022-09-30T03:22:00;12.98;;;10.15;;
11414;SDS011;5763;42.714;23.244;2022-09-30T03:24:56;12.30;;;10.68;;
11414;SDS011;5763;42.714;23.244;2022-09-30T03:27:43;13.70;;;11.27;;
11414;SDS011;5763;42.714;23.244;2022-09-30T03:30:24;13.73;;;10.40;;
11414;SDS011;5763;42.714;23.244;2022-09-30T03:32:56;10.65;;;9.55;;
11414;SDS011;5763;42.714;23.244;2022-09-30T03:35:38;13.18;;;9.20;;
11414;SDS011;5763;42.714;23.244;2022-09-30T03:38:11;14.00;;;10.10;;
11414;SDS011;5763;42.714;23.244;2022-09-30T03:40:42;14.77;;;9.65;;
11414;SDS011;5763;42.714;23.244;2022-09-30T03:43:18;21.15;;;9.88;;
11414;SDS011;5763;42.714;23.244;2022-09-30T03:45:52;14.00;;;10.48;;
11414;SDS011;5763;42.714;23.244;2022-09-30T03:48:26;14.40;;;10.23;;
11414;SDS011;5763;42.714;23.244;2022-09-30T03:50:56;19.42;;;11.48;;
11414;SDS011;5763;42.714;23.244;2022-09-30T03:53:24;19.40;;;11.20;;
11414;SDS011;5763;42.714;23.244;2022-09-30T03:55:52;17.20;;;11.63;;
11414;SDS011;5763;42.714;23.244;2022-09-30T03:58:20;25.50;;;12.23;;
11414;SDS011;5763;42.714;23.244;2022-09-30T04:00:48;18.52;;;11.75;;
11414;SDS011;5763;42.714;23.244;2022-09-30T04:03:17;44.03;;;11.95;;
11414;SDS011;5763;42.714;23.244;2022-09-30T04:05:45;23.63;;;11.75;;
11414;SDS011;5763;42.714;23.244;2022-09-30T04:08:14;14.05;;;11.25;;
11414;SDS011;5763;42.714;23.244;2022-09-30T04:10:42;16.50;;;11.23;;
11414;SDS011;5763;42.714;23.244;2022-09-30T04:13:09;13.77;;;11.07;;
11414;SDS011;5763;42.714;23.244;2022-09-30T04:15:37;20.73;;;11.05;;
11414;SDS011;5763;42.714;23.244;2022-09-30T04:18:06;15.23;;;11.10;;
11414;SDS011;5763;42.714;23.244;2022-09-30T04:20:33;14.85;;;11.52;;
11414;SDS011;5763;42.714;23.244;2022-09-30T04:23:00;15.32;;;11.50;;
11414;SDS011;5763;42.714;23.244;2022-09-30T04:25:28;13.70;;;11.25;;
11414;SDS011;5763;42.714;23.244;2022-09-30T04:27:55;14.50;;;10.93;;
11414;SDS011;5763;42.714;23.244;2022-09-30T04:30:22;16.15;;;11.68;;
11414;SDS011;5763;42.714;23.244;2022-09-30T04:32:49;19.35;;;12.60;;
11414;SDS011;5763;42.714;23.244;2022-09-30T04:35:16;17.17;;;12.40;;
11414;SDS011;5763;42.714;23.244;2022-09-30T04:37:44;17.13;;;12.48;;
11414;SDS011;5763;42.714;23.244;2022-09-30T04:40:12;14.15;;;10.88;;
11414;SDS011;5763;42.714;23.244;2022-09-30T04:42:42;16.75;;;12.18;;
11414;SDS011;5763;42.714;23.244;2022-09-30T04:45:09;15.30;;;11.90;;
11414;SDS011;5763;42.714;23.244;2022-09-30T04:47:37;15.55;;;12.05;;
11414;SDS011;5763;42.714;23.244;2022-09-30T04:50:04;15.00;;;11.57;;
11414;SDS011;5763;42.714;23.244;2022-09-30T04:52:32;14.93;;;11.68;;
11414;SDS011;5763;42.714;23.244;2022-09-30T04:54:59;13.13;;;10.68;;
11414;SDS011;5763;42.714;23.244;2022-09-30T04:57:26;13.57;;;10.35;;
11414;SDS011;5763;42.714;23.244;2022-09-30T04:59:54;21.30;;;11.35;;
11414;SDS011;5763;42.714;23.244;2022-09-30T05:02:21;15.05;;;10.60;;
11414;SDS011;5763;42.714;23.244;2022-09-30T05:04:48;17.30;;;11.63;;
11414;SDS011;5763;42.714;23.244;2022-09-30T05:07:14;16.05;;;11.75;;
11414;SDS011;5763;42.714;23.244;2022-09-30T05:09:41;14.95;;;10.15;;
11414;SDS011;5763;42.714;23.244;2022-09-30T05:12:08;15.65;;;11.30;;
11414;SDS011;5763;42.714;23.244;2022-09-30T05:14:35;21.17;;;12.23;;
11414;SDS011;5763;42.714;23.244;2022-09-30T05:17:03;13.90;;;11.00;;
11414;SDS011;5763;42.714;23.244;2022-09-30T05:19:30;14.70;;;10.55;;
11414;SDS011;5763;42.714;23.244;2022-09-30T05:21:57;14.02;;;10.68;;
11414;SDS011;5763;42.714;23.244;2022-09-30T05:24:24;14.18;;;10.90;;
11414;SDS011;5763;42.714;23.244;2022-09-30T05:26:51;14.38;;;10.98;;
11414;SDS011;5763;42.714;23.244;2022-09-30T05:29:18;13.18;;;10.50;;
11414;SDS011;5763;42.714;23.244;2022-09-30T05:31:45;13.65;;;10.23;;
11414;SDS011;5763;42.714;23.244;2022-09-30T05:34:13;14.43;;;11.52;;
11414;SDS011;5763;42.714;23.244;2022-09-30T05:36:41;17.52;;;12.02;;
11414;SDS011;5763;42.714;23.244;2022-09-30T05:39:08;16.35;;;11.45;;
11414;SDS011;5763;42.714;23.244;2022-09-30T05:41:35;13.90;;;11.73;;
11414;SDS011;5763;42.714;23.244;2022-09-30T05:44:02;14.20;;;10.77;;
11414;SDS011;5763;42.714;23.244;2022-09-30T05:46:32;15.20;;;10.90;;
11414;SDS011;5763;42.714;23.244;2022-09-30T05:49:00;14.50;;;11.15;;
11414;SDS011;5763;42.714;23.244;2022-09-30T05:51:28;15.02;;;12.02;;
11414;SDS011;5763;42.714;23.244;2022-09-30T05:53:55;15.15;;;12.00;;
11414;SDS011;5763;42.714;23.244;2022-09-30T05:56:23;16.77;;;12.70;;
11414;SDS011;5763;42.714;23.244;2022-09-30T05:58:49;16.17;;;11.77;;
11414;SDS011;5763;42.714;23.244;2022-09-30T06:01:16;20.63;;;11.88;;
11414;SDS011;5763;42.714;23.244;2022-09-30T06:03:43;22.98;;;11.75;;
11414;SDS011;5763;42.714;23.244;2022-09-30T06:06:12;13.40;;;11.07;;
11414;SDS011;5763;42.714;23.244;2022-09-30T06:08:42;22.05;;;12.98;;
11414;SDS011;5763;42.714;23.244;2022-09-30T06:11:09;20.20;;;13.07;;
11414;SDS011;5763;42.714;23.244;2022-09-30T06:13:38;17.23;;;12.15;;
11414;SDS011;5763;42.714;23.244;2022-09-30T06:16:05;16.10;;;12.63;;
11414;SDS011;5763;42.714;23.244;2022-09-30T06:18:33;16.23;;;12.68;;
11414;SDS011;5763;42.714;23.244;2022-09-30T06:21:01;17.48;;;13.10;;
11414;SDS011;5763;42.714;23.244;2022-09-30T06:23:30;18.33;;;13.85;;
11414;SDS011;5763;42.714;23.244;2022-09-30T06:26:01;23.13;;;13.65;;
11414;SDS011;5763;42.714;23.244;2022-09-30T06:28:30;20.02;;;15.20;;
11414;SDS011;5763;42.714;23.244;2022-09-30T06:30:59;23.17;;;16.00;;
11414;SDS011;5763;42.714;23.244;2022-09-30T06:33:29;25.98;;;16.45;;
11414;SDS011;5763;42.714;23.244;2022-09-30T06:36:06;23.27;;;16.10;;
11414;SDS011;5763;42.714;23.244;2022-09-30T06:38:33;24.23;;;16.75;;
11414;SDS011;5763;42.714;23.244;2022-09-30T06:41:03;27.63;;;18.10;;
11414;SDS011;5763;42.714;23.244;2022-09-30T06:43:30;28.90;;;19.58;;
11414;SDS011;5763;42.714;23.244;2022-09-30T06:45:58;29.85;;;20.00;;
11414;SDS011;5763;42.714;23.244;2022-09-30T06:48:25;29.80;;;19.88;;
11414;SDS011;5763;42.714;23.244;2022-09-30T06:50:55;28.63;;;19.75;;
11414;SDS011;5763;42.714;23.244;2022-09-30T06:53:23;30.50;;;20.23;;
11414;SDS011;5763;42.714;23.244;2022-09-30T06:55:53;31.35;;;20.38;;
11414;SDS011;5763;42.714;23.244;2022-09-30T06:58:22;33.75;;;21.98;;
11414;SDS011;5763;42.714;23.244;2022-09-30T07:00:55;29.75;;;20.83;;
11414;SDS011;5763;42.714;23.244;2022-09-30T07:03:23;31.80;;;21.92;;
11414;SDS011;5763;42.714;23.244;2022-09-30T07:05:54;33.55;;;22.42;;
11414;SDS011;5763;42.714;23.244;2022-09-30T07:08:24;30.52;;;21.52;;
11414;SDS011;5763;42.714;23.244;2022-09-30T07:10:53;33.47;;;22.63;;
11414;SDS011;5763;42.714;23.244;2022-09-30T07:13:22;28.45;;;20.80;;
11414;SDS011;5763;42.714;23.244;2022-09-30T07:15:49;30.90;;;21.05;;
11414;SDS011;5763;42.714;23.244;2022-09-30T07:18:16;33.08;;;23.13;;
11414;SDS011;5763;42.714;23.244;2022-09-30T07:20:48;34.30;;;23.35;;
11414;SDS011;5763;42.714;23.244;2022-09-30T07:23:15;32.15;;;22.48;;
11414;SDS011;5763;42.714;23.244;2022-09-30T07:25:57;33.67;;;23.30;;
11414;SDS011;5763;42.714;23.244;2022-09-30T07:28:31;34.35;;;24.20;;
11414;SDS011;5763;42.714;23.244;2022-09-30T07:31:00;31.80;;;23.50;;
11414;SDS011;5763;42.714;23.244;2022-09-30T07:33:31;35.47;;;24.63;;
11414;SDS011;5763;42.714;23.244;2022-09-30T07:35:59;40.15;;;26.92;;
11414;SDS011;5763;42.714;23.244;2022-09-30T07:38:28;33.50;;;24.25;;
11414;SDS011;5763;42.714;23.244;2022-09-30T07:40:57;31.35;;;24.17;;
11414;SDS011;5763;42.714;23.244;2022-09-30T07:43:26;35.75;;;23.77;;
11414;SDS011;5763;42.714;23.244;2022-09-30T07:46:02;39.70;;;26.55;;
11414;SDS011;5763;42.714;23.244;2022-09-30T07:48:30;39.85;;;26.30;;
11414;SDS011;5763;42.714;23.244;2022-09-30T07:51:13;39.20;;;25.55;;
11414;SDS011;5763;42.714;23.244;2022-09-30T07:53:42;35.53;;;24.35;;
11414;SDS011;5763;42.714;23.244;2022-09-30T07:56:11;36.03;;;25.40;;
11414;SDS011;5763;42.714;23.244;2022-09-30T07:58:38;43.42;;;26.77;;
11414;SDS011;5763;42.714;23.244;2022-09-30T08:01:07;42.55;;;26.98;;
11414;SDS011;5763;42.714;23.244;2022-09-30T08:03:35;41.08;;;27.13;;
11414;SDS011;5763;42.714;23.244;2022-09-30T08:06:04;40.63;;;26.95;;
11414;SDS011;5763;42.714;23.244;2022-09-30T08:08:32;38.00;;;26.15;;
11414;SDS011;5763;42.714;23.244;2022-09-30T08:10:59;35.72;;;24.88;;
11414;SDS011;5763;42.714;23.244;2022-09-30T08:13:27;35.38;;;25.20;;
11414;SDS011;5763;42.714;23.244;2022-09-30T08:15:54;37.65;;;25.55;;
11414;SDS011;5763;42.714;23.244;2022-09-30T08:18:22;39.20;;;26.92;;
11414;SDS011;5763;42.714;23.244;2022-09-30T08:20:49;32.97;;;23.27;;
11414;SDS011;5763;42.714;23.244;2022-09-30T08:23:19;29.95;;;21.85;;
11414;SDS011;5763;42.714;23.244;2022-09-30T08:25:48;28.88;;;20.05;;
11414;SDS011;5763;42.714;23.244;2022-09-30T08:28:14;28.88;;;21.10;;
11414;SDS011;5763;42.714;23.244;2022-09-30T08:30:42;26.75;;;19.05;;
11414;SDS011;5763;42.714;23.244;2022-09-30T08:33:10;30.38;;;21.63;;
11414;SDS011;5763;42.714;23.244;2022-09-30T08:35:38;26.17;;;20.00;;
11414;SDS011;5763;42.714;23.244;2022-09-30T08:38:05;25.52;;;20.23;;
11414;SDS011;5763;42.714;23.244;2022-09-30T08:40:32;24.00;;;18.25;;
11414;SDS011;5763;42.714;23.244;2022-09-30T08:43:19;25.38;;;17.65;;
11414;SDS011;5763;42.714;23.244;2022-09-30T08:45:55;21.95;;;18.45;;
11414;SDS011;5763;42.714;23.244;2022-09-30T08:48:30;22.83;;;18.50;;
11414;SDS011;5763;42.714;23.244;2022-09-30T08:51:13;24.02;;;17.92;;
11414;SDS011;5763;42.714;23.244;2022-09-30T08:53:51;22.63;;;16.95;;
11414;SDS011;5763;42.714;23.244;2022-09-30T08:56:22;23.40;;;17.60;;
11414;SDS011;5763;42.714;23.244;2022-09-30T08:58:52;21.75;;;16.70;;
11414;SDS011;5763;42.714;23.244;2022-09-30T09:01:25;20.42;;;16.77;;
11414;SDS011;5763;42.714;23.244;2022-09-30T09:03:57;21.42;;;15.98;;
11414;SDS011;5763;42.714;23.244;2022-09-30T09:06:29;22.23;;;14.77;;
11414;SDS011;5763;42.714;23.244;2022-09-30T09:12:00;18.25;;;12.73;;
11414;SDS011;5763;42.714;23.244;2022-09-30T09:14:40;13.75;;;11.30;;
11414;SDS011;5763;42.714;23.244;2022-09-30T09:17:24;13.95;;;11.00;;
11414;SDS011;5763;42.714;23.244;2022-09-30T09:20:07;15.10;;;11.43;;
11414;SDS011;5763;42.714;23.244;2022-09-30T09:22:40;21.25;;;11.38;;
11414;SDS011;5763;42.714;23.244;2022-09-30T09:25:10;13.27;;;10.23;;
11414;SDS011;5763;42.714;23.244;2022-09-30T09:27:42;12.70;;;10.18;;
11414;SDS011;5763;42.714;23.244;2022-09-30T09:30:16;17.23;;;9.90;;
11414;SDS011;5763;42.714;23.244;2022-09-30T09:32:47;16.08;;;10.43;;
11414;SDS011;5763;42.714;23.244;2022-09-30T09:35:26;11.95;;;7.50;;
11414;SDS011;5763;42.714;23.244;2022-09-30T09:37:59;13.73;;;9.07;;
11414;SDS011;5763;42.714;23.244;2022-09-30T09:40:51;15.55;;;8.52;;
11414;SDS011;5763;42.714;23.244;2022-09-30T09:43:29;14.02;;;8.13;;
11414;SDS011;5763;42.714;23.244;2022-09-30T09:46:14;11.73;;;8.10;;
11414;SDS011;5763;42.714;23.244;2022-09-30T09:48:47;10.23;;;5.05;;
11414;SDS011;5763;42.714;23.244;2022-09-30T09:51:17;6.50;;;5.13;;
11414;SDS011;5763;42.714;23.244;2022-09-30T09:53:51;4.53;;;2.38;;
11414;SDS011;5763;42.714;23.244;2022-09-30T09:56:25;2.97;;;1.88;;
11414;SDS011;5763;42.714;23.244;2022-09-30T09:59:08;4.97;;;1.83;;
11414;SDS011;5763;42.714;23.244;2022-09-30T10:01:38;3.65;;;1.70;;
11414;SDS011;5763;42.714;23.244;2022-09-30T10:04:07;3.53;;;1.70;;
11414;SDS011;5763;42.714;23.244;2022-09-30T10:06:44;2.63;;;1.65;;
11414;SDS011;5763;42.714;23.244;2022-09-30T10:12:18;3.50;;;1.80;;
11414;SDS011;5763;42.714;23.244;2022-09-30T10:14:57;2.03;;;1.85;;
11414;SDS011;5763;42.714;23.244;2022-09-30T10:17:27;7.60;;;2.03;;
11414;SDS011;5763;42.714;23.244;2022-09-30T10:19:58;3.47;;;1.80;;
11414;SDS011;5763;42.714;23.244;2022-09-30T10:22:31;2.95;;;1.70;;
11414;SDS011;5763;42.714;23.244;2022-09-30T10:25:14;4.28;;;2.08;;
11414;SDS011;5763;42.714;23.244;2022-09-30T10:27:49;3.50;;;2.00;;
11414;SDS011;5763;42.714;23.244;2022-09-30T10:30:29;4.55;;;2.40;;
11414;SDS011;5763;42.714;23.244;2022-09-30T10:32:59;4.07;;;2.17;;
11414;SDS011;5763;42.714;23.244;2022-09-30T10:35:28;5.57;;;2.00;;
11414;SDS011;5763;42.714;23.244;2022-09-30T10:37:56;3.78;;;1.95;;
11414;SDS011;5763;42.714;23.244;2022-09-30T10:40:26;6.18;;;1.88;;
11414;SDS011;5763;42.714;23.244;2022-09-30T10:42:55;3.85;;;1.70;;
11414;SDS011;5763;42.714;23.244;2022-09-30T10:45:23;3.45;;;1.60;;
11414;SDS011;5763;42.714;23.244;2022-09-30T10:47:57;3.55;;;1.65;;
11414;SDS011;5763;42.714;23.244;2022-09-30T10:50:31;3.55;;;1.60;;
11414;SDS011;5763;42.714;23.244;2022-09-30T10:52:59;5.05;;;1.58;;
11414;SDS011;5763;42.714;23.244;2022-09-30T10:55:32;3.20;;;1.60;;
11414;SDS011;5763;42.714;23.244;2022-09-30T10:58:03;2.53;;;1.63;;
11414;SDS011;5763;42.714;23.244;2022-09-30T11:00:48;5.38;;;1.30;;
11414;SDS011;5763;42.714;23.244;2022-09-30T11:03:19;4.15;;;1.70;;
11414;SDS011;5763;42.714;23.244;2022-09-30T11:05:50;4.72;;;2.20;;
11414;SDS011;5763;42.714;23.244;2022-09-30T11:08:18;4.15;;;1.40;;
11414;SDS011;5763;42.714;23.244;2022-09-30T11:10:52;3.28;;;2.25;;
11414;SDS011;5763;42.714;23.244;2022-09-30T11:13:30;4.10;;;1.63;;
11414;SDS011;5763;42.714;23.244;2022-09-30T11:16:04;3.67;;;1.52;;
11414;SDS011;5763;42.714;23.244;2022-09-30T11:18:42;2.95;;;1.40;;
11414;SDS011;5763;42.714;23.244;2022-09-30T11:21:14;3.08;;;1.33;;
11414;SDS011;5763;42.714;23.244;2022-09-30T11:23:47;3.15;;;1.60;;
11414;SDS011;5763;42.714;23.244;2022-09-30T11:26:23;2.33;;;1.40;;
11414;SDS011;5763;42.714;23.244;2022-09-30T11:29:02;3.05;;;1.40;;
11414;SDS011;5763;42.714;23.244;2022-09-30T11:31:42;1.70;;;1.42;;
11414;SDS011;5763;42.714;23.244;2022-09-30T11:34:24;2.85;;;1.33;;
11414;SDS011;5763;42.714;23.244;2022-09-30T11:37:03;2.80;;;1.75;;
11414;SDS011;5763;42.714;23.244;2022-09-30T11:42:45;1.48;;;1.27;;
11414;SDS011;5763;42.714;23.244;2022-09-30T11:45:20;3.67;;;1.85;;
11414;SDS011;5763;42.714;23.244;2022-09-30T11:48:06;2.42;;;1.42;;
11414;SDS011;5763;42.714;23.244;2022-09-30T11:50:54;1.40;;;1.30;;
11414;SDS011;5763;42.714;23.244;2022-09-30T11:53:34;2.67;;;1.50;;
11414;SDS011;5763;42.714;23.244;2022-09-30T11:56:14;1.60;;;1.30;;
11414;SDS011;5763;42.714;23.244;2022-09-30T11:58:54;1.70;;;1.60;;
11414;SDS011;5763;42.714;23.244;2022-09-30T12:01:26;2.88;;;1.38;;
11414;SDS011;5763;42.714;23.244;2022-09-30T12:03:59;2.25;;;1.50;;
11414;SDS011;5763;42.714;23.244;2022-09-30T12:06:31;2.05;;;1.30;;
11414;SDS011;5763;42.714;23.244;2022-09-30T12:09:02;1.65;;;1.38;;
11414;SDS011;5763;42.714;23.244;2022-09-30T12:11:41;2.47;;;1.38;;
11414;SDS011;5763;42.714;23.244;2022-09-30T12:14:15;1.90;;;1.20;;
11414;SDS011;5763;42.714;23.244;2022-09-30T12:16:48;1.77;;;1.40;;
11414;SDS011;5763;42.714;23.244;2022-09-30T12:19:17;2.88;;;1.15;;
11414;SDS011;5763;42.714;23.244;2022-09-30T12:21:48;1.90;;;1.05;;
11414;SDS011;5763;42.714;23.244;2022-09-30T12:24:22;4.68;;;1.35;;
11414;SDS011;5763;42.714;23.244;2022-09-30T12:26:53;2.60;;;1.40;;
11414;SDS011;5763;42.714;23.244;2022-09-30T12:29:23;3.35;;;2.60;;
11414;SDS011;5763;42.714;23.244;2022-09-30T12:35:07;1.42;;;1.33;;
11414;SDS011;5763;42.714;23.244;2022-09-30T12:37:52;1.38;;;1.20;;
11414;SDS011;5763;42.714;23.244;2022-09-30T12:40:35;4.55;;;1.52;;
11414;SDS011;5763;42.714;23.244;2022-09-30T12:43:20;3.22;;;2.10;;
11414;SDS011;5763;42.714;23.244;2022-09-30T12:46:13;3.72;;;1.50;;
11414;SDS011;5763;42.714;23.244;2022-09-30T12:48:46;4.75;;;1.75;;
11414;SDS011;5763;42.714;23.244;2022-09-30T12:51:19;1.77;;;1.50;;
11414;SDS011;5763;42.714;23.244;2022-09-30T12:53:51;3.88;;;1.40;;
11414;SDS011;5763;42.714;23.244;2022-09-30T12:56:28;1.58;;;1.48;;
11414;SDS011;5763;42.714;23.244;2022-09-30T12:58:57;3.13;;;1.70;;
11414;SDS011;5763;42.714;23.244;2022-09-30T13:01:27;2.20;;;1.40;;
11414;SDS011;5763;42.714;23.244;2022-09-30T13:04:13;1.40;;;1.30;;
11414;SDS011;5763;42.714;23.244;2022-09-30T13:12:41;2.25;;;1.60;;
11414;SDS011;5763;42.714;23.244;2022-09-30T13:15:36;1.92;;;1.63;;
11414;SDS011;5763;42.714;23.244;2022-09-30T13:21:17;2.00;;;1.40;;
11414;SDS011;5763;42.714;23.244;2022-09-30T13:23:47;1.83;;;1.20;;
11414;SDS011;5763;42.714;23.244;2022-09-30T13:26:31;1.23;;;1.08;;
11414;SDS011;5763;42.714;23.244;2022-09-30T13:29:34;1.75;;;1.23;;
11414;SDS011;5763;42.714;23.244;2022-09-30T13:32:08;5.10;;;1.38;;
11414;SDS011;5763;42.714;23.244;2022-09-30T13:34:52;2.55;;;1.30;;
11414;SDS011;5763;42.714;23.244;2022-09-30T13:37:39;1.45;;;1.17;;
11414;SDS011;5763;42.714;23.244;2022-09-30T13:40:13;3.40;;;1.20;;
11414;SDS011;5763;42.714;23.244;2022-09-30T13:42:54;1.92;;;1.10;;
11414;SDS011;5763;42.714;23.244;2022-09-30T13:45:29;2.70;;;1.30;;
11414;SDS011;5763;42.714;23.244;2022-09-30T13:48:03;1.48;;;1.20;;
11414;SDS011;5763;42.714;23.244;2022-09-30T13:50:36;2.60;;;1.50;;
11414;SDS011;5763;42.714;23.244;2022-09-30T13:53:13;1.40;;;1.20;;
11414;SDS011;5763;42.714;23.244;2022-09-30T13:55:46;2.42;;;1.20;;
11414;SDS011;5763;42.714;23.244;2022-09-30T13:58:25;2.45;;;1.33;;
11414;SDS011;5763;42.714;23.244;2022-09-30T14:01:13;2.42;;;1.40;;
11414;SDS011;5763;42.714;23.244;2022-09-30T14:04:12;3.33;;;1.10;;
11414;SDS011;5763;42.714;23.244;2022-09-30T14:06:53;2.92;;;1.17;;
11414;SDS011;5763;42.714;23.244;2022-09-30T14:09:36;1.80;;;1.30;;
11414;SDS011;5763;42.714;23.244;2022-09-30T14:12:22;1.23;;;1.08;;
11414;SDS011;5763;42.714;23.244;2022-09-30T14:18:07;3.88;;;1.45;;
11414;SDS011;5763;42.714;23.244;2022-09-30T14:20:55;2.38;;;1.42;;
11414;SDS011;5763;42.714;23.244;2022-09-30T14:23:33;2.20;;;1.52;;
11414;SDS011;5763;42.714;23.244;2022-09-30T14:26:06;1.73;;;1.20;;
11414;SDS011;5763;42.714;23.244;2022-09-30T14:28:51;1.98;;;1.10;;
11414;SDS011;5763;42.714;23.244;2022-09-30T14:31:24;2.55;;;1.20;;
11414;SDS011;5763;42.714;23.244;2022-09-30T14:33:51;2.28;;;1.42;;
11414;SDS011;5763;42.714;23.244;2022-09-30T14:36:19;4.45;;;1.10;;
11414;SDS011;5763;42.714;23.244;2022-09-30T14:38:48;4.20;;;1.10;;
11414;SDS011;5763;42.714;23.244;2022-09-30T14:41:22;2.53;;;1.42;;
11414;SDS011;5763;42.714;23.244;2022-09-30T14:43:50;2.83;;;1.40;;
11414;SDS011;5763;42.714;23.244;2022-09-30T14:46:28;2.65;;;1.48;;
11414;SDS011;5763;42.714;23.244;2022-09-30T14:48:59;2.50;;;1.58;;
11414;SDS011;5763;42.714;23.244;2022-09-30T14:51:33;3.30;;;1.27;;
11414;SDS011;5763;42.714;23.244;2022-09-30T14:54:13;1.20;;;1.10;;
11414;SDS011;5763;42.714;23.244;2022-09-30T14:56:44;1.88;;;1.13;;
11414;SDS011;5763;42.714;23.244;2022-09-30T14:59:15;2.95;;;1.42;;
11414;SDS011;5763;42.714;23.244;2022-09-30T15:01:44;2.60;;;1.42;;
11414;SDS011;5763;42.714;23.244;2022-09-30T15:04:14;2.65;;;1.60;;
11414;SDS011;5763;42.714;23.244;2022-09-30T15:06:44;1.20;;;1.10;;
11414;SDS011;5763;42.714;23.244;2022-09-30T15:09:15;2.20;;;1.45;;
11414;SDS011;5763;42.714;23.244;2022-09-30T15:11:45;2.25;;;1.48;;
11414;SDS011;5763;42.714;23.244;2022-09-30T15:14:14;2.38;;;1.33;;
11414;SDS011;5763;42.714;23.244;2022-09-30T15:16:45;2.25;;;1.30;;
11414;SDS011;5763;42.714;23.244;2022-09-30T15:19:17;2.35;;;1.40;;
11414;SDS011;5763;42.714;23.244;2022-09-30T15:21:46;3.78;;;1.48;;
11414;SDS011;5763;42.714;23.244;2022-09-30T15:24:15;3.35;;;1.52;;
11414;SDS011;5763;42.714;23.244;2022-09-30T15:26:45;2.92;;;1.50;;
11414;SDS011;5763;42.714;23.244;2022-09-30T15:29:14;3.20;;;1.70;;
11414;SDS011;5763;42.714;23.244;2022-09-30T15:31:42;3.90;;;1.98;;
11414;SDS011;5763;42.714;23.244;2022-09-30T15:34:12;3.97;;;2.10;;